TimeEDT,TemperatureF,Dew PointF,Humidity,Sea Level PressureIn,VisibilityMPH,Wind Direction,Wind SpeedMPH,Gust SpeedMPH,PrecipitationIn,Events,Conditions,WindDirDegrees,DateUTC
12:54 AM,57.0,39.9,53,30.07,-9999.0,WNW,6.9,-,N/A,,Unknown,300,2013-10-21 04:54:00
1:54 AM,55.9,41.0,57,30.08,-9999.0,WNW,3.5,-,N/A,,Unknown,290,2013-10-21 05:54:00
2:54 AM,52.0,42.1,69,30.09,-9999.0,Calm,Calm,-,N/A,,Unknown,0,2013-10-21 06:54:00
3:54 AM,50.0,39.9,68,30.10,-9999.0,Calm,Calm,-,N/A,,Unknown,0,2013-10-21 07:54:00
4:54 AM,52.0,44.1,74,30.11,-9999.0,Calm,Calm,-,N/A,,Unknown,0,2013-10-21 08:54:00
5:54 AM,53.1,46.9,80,30.12,-9999.0,Calm,Calm,-,N/A,,Unknown,0,2013-10-21 09:54:00
6:54 AM,54.0,45.0,72,30.13,-9999.0,SW,4.6,-,N/A,,Unknown,230,2013-10-21 10:54:00
7:54 AM,55.0,46.0,72,30.15,-9999.0,Variable,3.5,-,N/A,,Unknown,0,2013-10-21 11:54:00
8:54 AM,57.9,46.9,67,30.16,-9999.0,WSW,4.6,-,N/A,,Unknown,250,2013-10-21 12:54:00
9:54 AM,60.1,45.0,57,30.15,-9999.0,WSW,6.9,-,N/A,,Unknown,250,2013-10-21 13:54:00
10:54 AM,61.0,43.0,52,30.15,-9999.0,West,8.1,-,N/A,,Unknown,260,2013-10-21 14:54:00
11:54 AM,62.1,44.1,52,30.14,-9999.0,West,8.1,-,N/A,,Unknown,260,2013-10-21 15:54:00
12:54 PM,63.0,39.0,41,30.12,-9999.0,WSW,9.2,-,N/A,,Unknown,250,2013-10-21 16:54:00
1:54 PM,64.0,39.9,41,30.10,-9999.0,WSW,4.6,-,N/A,,Unknown,250,2013-10-21 17:54:00
2:54 PM,63.0,42.1,46,30.09,-9999.0,SSW,8.1,-,N/A,,Unknown,210,2013-10-21 18:54:00
3:54 PM,62.1,43.0,50,30.08,-9999.0,SSW,6.9,-,N/A,,Unknown,200,2013-10-21 19:54:00
4:54 PM,61.0,44.1,54,30.08,-9999.0,SSW,8.1,-,N/A,,Unknown,200,2013-10-21 20:54:00
5:54 PM,59.0,46.0,62,30.09,-9999.0,SSW,8.1,-,N/A,,Unknown,200,2013-10-21 21:54:00
6:54 PM,59.0,46.0,62,30.09,-9999.0,SSW,6.9,-,N/A,,Unknown,200,2013-10-21 22:54:00
7:54 PM,59.0,45.0,60,30.09,-9999.0,SSW,5.8,-,N/A,,Unknown,200,2013-10-21 23:54:00
8:54 PM,59.0,44.1,58,30.08,-9999.0,SSW,8.1,-,N/A,,Unknown,200,2013-10-22 00:54:00
9:54 PM,59.0,46.0,62,30.07,-9999.0,SSW,6.9,-,N/A,,Unknown,200,2013-10-22 01:54:00
10:54 PM,59.0,46.9,64,30.05,-9999.0,SSW,6.9,-,N/A,,Unknown,200,2013-10-22 02:54:00
11:54 PM,57.9,48.0,70,30.03,-9999.0,SSW,3.5,-,N/A,,Unknown,210,2013-10-22 03:54:00